createdAt,value
2024-01-19T00:00:26.591Z,100956.47
2024-01-19T00:03:13.872Z,100957.28
2024-01-19T00:06:01.254Z,100952.63
2024-01-19T00:08:48.712Z,100940.16
2024-01-19T00:11:37.372Z,100950.50
2024-01-19T00:14:24.939Z,100953.88
2024-01-19T00:17:12.136Z,100943.44
2024-01-19T00:20:00.514Z,100956.59
2024-01-19T00:22:48.145Z,100955.72
2024-01-19T00:25:35.400Z,100955.16
2024-01-19T00:28:22.594Z,100949.91
2024-01-19T00:31:09.961Z,100950.94
2024-01-19T00:33:57.751Z,100954.31
2024-01-19T00:36:45.331Z,100961.50
2024-01-19T00:39:33.614Z,100963.25
2024-01-19T00:42:20.822Z,100963.47
2024-01-19T00:45:12.951Z,100982.84
2024-01-19T00:48:00.293Z,101002.44
2024-01-19T00:50:47.591Z,100994.63
2024-01-19T00:53:34.871Z,100999.72
2024-01-19T00:56:23.240Z,101009.50
2024-01-19T00:59:10.610Z,101010.28
2024-01-19T01:01:57.814Z,101020.69
2024-01-19T01:04:44.984Z,100991.47
2024-01-19T01:07:32.184Z,101005.38
2024-01-19T01:10:19.597Z,101010.75
2024-01-19T01:13:06.999Z,101008.84
2024-01-19T01:15:55.731Z,101007.91
2024-01-19T01:18:43.100Z,101011.22
2024-01-19T01:21:31.653Z,101019.00
2024-01-19T01:24:20.383Z,101010.06
2024-01-19T01:27:07.681Z,101006.56
2024-01-19T01:29:55.452Z,101019.78
2024-01-19T01:32:42.943Z,101013.66
2024-01-19T01:35:30.483Z,101013.56
2024-01-19T01:38:17.821Z,101021.63
2024-01-19T01:41:05.194Z,101012.63
2024-01-19T01:43:52.602Z,101018.56
2024-01-19T01:46:39.924Z,101016.81
2024-01-19T01:49:27.677Z,101015.06
2024-01-19T01:52:15.085Z,101023.16
2024-01-19T01:55:02.537Z,101022.25
2024-01-19T01:57:49.989Z,101022.25
2024-01-19T02:00:38.594Z,101029.59
2024-01-19T02:03:27.274Z,101029.78
2024-01-19T02:06:15.810Z,101037.78
2024-01-19T02:09:03.525Z,101021.19
2024-01-19T02:11:51.341Z,101037.19
2024-01-19T02:14:38.710Z,101039.06
2024-01-19T02:17:27.748Z,101052.44
2024-01-19T02:20:15.628Z,101055.25
2024-01-19T02:23:06.049Z,101058.91
2024-01-19T02:25:55.237Z,101059.97
2024-01-19T02:28:42.667Z,101064.63
2024-01-19T02:31:29.909Z,101061.19
2024-01-19T02:34:16.976Z,101069.53
2024-01-19T02:37:05.420Z,101061.63
2024-01-19T02:39:52.626Z,101077.53
2024-01-19T02:42:39.944Z,101077.63
2024-01-19T02:45:27.092Z,101090.06
2024-01-19T02:48:14.474Z,101081.50
2024-01-19T02:51:01.821Z,101094.66
2024-01-19T02:53:49.171Z,101102.75
2024-01-19T02:56:36.495Z,101099.16
2024-01-19T02:59:23.877Z,101092.19
2024-01-19T03:02:11.104Z,101103.69
2024-01-19T03:04:58.383Z,101098.50
2024-01-19T03:07:45.644Z,101108.38
2024-01-19T03:10:32.942Z,101096.94
2024-01-19T03:13:20.094Z,101105.72
2024-01-19T03:16:08.273Z,101097.84
2024-01-19T03:18:56.399Z,101099.56
2024-01-19T03:21:45.116Z,101108.38
2024-01-19T03:24:32.277Z,101101.22
2024-01-19T03:27:19.483Z,101110.69
2024-01-19T03:30:07.375Z,101111.59
2024-01-19T03:32:54.612Z,101107.91
2024-01-19T03:35:41.844Z,101121.19
2024-01-19T03:38:30.678Z,101116.72
2024-01-19T03:41:18.100Z,101108.78
2024-01-19T03:44:05.478Z,101112.31
2024-01-19T03:46:53.088Z,101113.25
2024-01-19T03:49:41.273Z,101114.97
2024-01-19T03:52:28.636Z,101109.75
2024-01-19T03:55:18.985Z,101118.66
2024-01-19T03:58:06.634Z,101116.03
2024-01-19T04:00:53.788Z,101116.94
2024-01-19T04:03:41.266Z,101115.19
2024-01-19T04:06:28.594Z,101115.25
2024-01-19T04:09:18.794Z,101125.84
2024-01-19T04:12:17.479Z,101125.84
2024-01-19T04:15:05.508Z,101122.25
2024-01-19T04:17:53.504Z,101129.16
2024-01-19T04:20:40.720Z,101139.91
2024-01-19T04:23:27.917Z,101141.53
2024-01-19T04:26:15.176Z,101144.25
2024-01-19T04:29:03.146Z,101140.63
2024-01-19T04:31:50.970Z,101132.72
2024-01-19T04:34:38.179Z,101148.72
2024-01-19T04:37:25.440Z,101149.84
2024-01-19T04:40:12.763Z,101157.63
2024-01-19T04:42:59.926Z,101164.81
2024-01-19T04:45:47.187Z,101163.16
2024-01-19T04:48:34.611Z,101167.72
2024-01-19T04:51:21.955Z,101160.78
2024-01-19T04:54:09.282Z,101178.19
2024-01-19T04:56:56.587Z,101182.66
2024-01-19T04:59:43.865Z,101176.47
2024-01-19T05:02:34.136Z,101179.19
2024-01-19T05:05:21.760Z,101173.94
2024-01-19T05:08:09.068Z,101182.75
2024-01-19T05:10:56.345Z,101195.19
2024-01-19T05:13:44.599Z,101188.19
2024-01-19T05:16:31.895Z,101188.19
2024-01-19T05:19:19.104Z,101204.97
2024-01-19T05:22:06.494Z,101205.84
2024-01-19T05:24:53.724Z,101218.28
2024-01-19T05:27:40.866Z,101221.75
2024-01-19T05:30:28.097Z,101219.19
2024-01-19T05:33:16.069Z,101225.34
2024-01-19T05:36:03.546Z,101231.44
2024-01-19T05:38:51.006Z,101241.16
2024-01-19T05:41:38.335Z,101255.13
2024-01-19T05:44:25.653Z,101284.34
2024-01-19T05:47:13.172Z,101304.50
2024-01-19T05:50:01.603Z,101313.13
2024-01-19T05:52:48.907Z,101323.66
2024-01-19T05:55:36.239Z,101328.91
2024-01-19T05:58:23.465Z,101324.16
2024-01-19T06:01:11.259Z,101324.03
2024-01-19T06:04:01.870Z,101315.81
2024-01-19T06:06:49.286Z,101309.44
2024-01-19T06:09:37.107Z,101308.44
2024-01-19T06:12:24.339Z,101312.13
2024-01-19T06:15:11.713Z,101320.94
2024-01-19T06:17:59.102Z,101324.66
2024-01-19T06:20:46.443Z,101322.22
2024-01-19T06:23:33.774Z,101323.25
2024-01-19T06:26:20.988Z,101335.69
2024-01-19T06:29:08.216Z,101342.88
2024-01-19T06:31:55.551Z,101352.72
2024-01-19T06:34:43.764Z,101350.19
2024-01-19T06:37:31.045Z,101350.34
2024-01-19T06:40:19.216Z,101352.19
2024-01-19T06:43:06.403Z,101352.22
2024-01-19T06:45:53.609Z,101353.16
2024-01-19T06:48:43.213Z,101354.22
2024-01-19T06:51:31.623Z,101369.34
2024-01-19T06:54:19.065Z,101373.88
2024-01-19T06:57:06.622Z,101379.41
2024-01-19T06:59:53.955Z,101378.66
2024-01-19T07:02:41.167Z,101377.00
2024-01-19T07:05:28.642Z,101381.66
2024-01-19T07:08:17.466Z,101394.09
2024-01-19T07:11:04.984Z,101401.53
2024-01-19T07:13:52.270Z,101418.34
2024-01-19T07:16:44.721Z,101415.88
2024-01-19T07:19:32.174Z,101424.84
2024-01-19T07:22:19.560Z,101417.91
2024-01-19T07:25:07.496Z,101430.34
2024-01-19T07:27:54.751Z,101425.19
2024-01-19T07:30:42.065Z,101428.75
2024-01-19T07:33:33.162Z,101432.41
2024-01-19T07:36:20.999Z,101434.38
2024-01-19T07:39:08.698Z,101437.97
2024-01-19T07:41:56.029Z,101441.56
2024-01-19T07:44:47.288Z,101445.22
2024-01-19T07:47:36.911Z,101449.72
2024-01-19T07:50:24.821Z,101449.72
2024-01-19T07:53:12.215Z,101441.78
2024-01-19T07:56:00.662Z,101455.00
2024-01-19T07:58:47.899Z,101465.59
2024-01-19T08:01:35.712Z,101469.97
2024-01-19T08:04:22.951Z,101455.88
2024-01-19T08:07:10.215Z,101475.25
2024-01-19T08:09:57.448Z,101472.59
2024-01-19T08:12:44.688Z,101479.72
2024-01-19T08:15:31.911Z,101486.78
2024-01-19T08:18:19.607Z,101486.09
2024-01-19T08:21:07.258Z,101494.84
2024-01-19T08:23:54.683Z,101486.03
2024-01-19T08:26:42.050Z,101494.84
2024-01-19T08:29:29.404Z,101482.53
2024-01-19T08:32:17.095Z,101492.97
2024-01-19T08:35:09.665Z,101508.88
2024-01-19T08:37:59.469Z,101517.63
2024-01-19T08:40:48.370Z,101521.97
2024-01-19T08:43:35.792Z,101512.16
2024-01-19T08:46:23.012Z,101515.59
2024-01-19T08:49:10.709Z,101529.66
2024-01-19T08:51:57.959Z,101526.03
2024-01-19T08:54:45.258Z,101534.63
2024-01-19T08:57:33.606Z,101542.41
2024-01-19T09:00:21.562Z,101535.28
2024-01-19T09:03:13.253Z,101545.91
2024-01-19T09:06:00.456Z,101553.06
2024-01-19T09:08:47.764Z,101557.34
2024-01-19T09:11:35.498Z,101566.09
2024-01-19T09:14:23.480Z,101560.81
2024-01-19T09:17:13.346Z,101564.09
2024-01-19T09:20:00.904Z,101563.84
2024-01-19T09:22:48.244Z,101566.50
2024-01-19T09:25:35.488Z,101588.38
2024-01-19T09:28:23.115Z,101591.00
2024-01-19T09:31:10.364Z,101595.38
2024-01-19T09:33:57.924Z,101590.03
2024-01-19T09:36:45.357Z,101602.38
2024-01-19T09:39:32.783Z,101602.31
2024-01-19T09:42:34.991Z,101604.94
2024-01-19T09:45:27.651Z,101597.69
2024-01-19T09:48:24.902Z,101596.91
2024-01-19T09:51:13.013Z,101608.97
2024-01-19T09:54:08.663Z,101609.81
2024-01-19T09:56:56.003Z,101614.88
2024-01-19T09:59:44.429Z,101627.09
2024-01-19T10:02:34.007Z,101632.81
2024-01-19T10:05:22.942Z,101633.44
2024-01-19T10:08:15.135Z,101643.44
2024-01-19T10:11:09.421Z,101638.94
2024-01-19T10:13:56.689Z,101655.41
2024-01-19T10:16:45.791Z,101656.34
2024-01-19T10:19:35.105Z,101652.97
2024-01-19T10:22:29.824Z,101654.59
2024-01-19T10:25:17.183Z,101646.41
2024-01-19T10:28:04.748Z,101652.88
2024-01-19T10:30:51.907Z,101658.63
2024-01-19T10:33:53.549Z,101646.50
2024-01-19T10:36:41.518Z,101651.72
2024-01-19T10:39:33.044Z,101648.16
2024-01-19T10:42:21.268Z,101655.88
2024-01-19T10:45:26.162Z,101657.75
2024-01-19T10:48:28.037Z,101652.41
2024-01-19T10:51:15.603Z,101665.25
2024-01-19T10:54:04.021Z,101663.75
2024-01-19T10:57:10.263Z,101669.25
2024-01-19T10:59:57.597Z,101668.63
2024-01-19T11:02:51.164Z,101671.72
2024-01-19T11:05:38.477Z,101658.38
2024-01-19T11:08:29.855Z,101659.31
2024-01-19T11:11:19.965Z,101670.28
2024-01-19T11:14:10.284Z,101666.19
2024-01-19T11:16:58.050Z,101660.00
2024-01-19T11:19:45.374Z,101660.63
2024-01-19T11:22:33.541Z,101657.78
2024-01-19T11:25:37.024Z,101657.34
2024-01-19T11:28:47.325Z,101660.81
2024-01-19T11:31:41.728Z,101653.34
2024-01-19T11:34:53.531Z,101656.84
2024-01-19T11:37:48.409Z,101657.81
2024-01-19T11:40:37.043Z,101663.84
2024-01-19T11:43:44.724Z,101663.56
2024-01-19T11:46:53.076Z,101662.97
2024-01-19T11:49:47.751Z,101669.34
2024-01-19T11:52:43.843Z,101675.19
2024-01-19T11:55:35.353Z,101677.91
2024-01-19T11:58:30.689Z,101674.16
2024-01-19T12:01:18.682Z,101676.28
2024-01-19T12:04:06.204Z,101682.69
2024-01-19T12:07:05.325Z,101676.69
2024-01-19T12:10:16.652Z,101677.94
2024-01-19T12:13:04.838Z,101676.44
2024-01-19T12:15:54.188Z,101683.00
2024-01-19T12:18:41.830Z,101678.56
2024-01-19T12:21:29.354Z,101676.22
2024-01-19T12:24:20.750Z,101668.75
2024-01-19T12:27:07.916Z,101677.78
2024-01-19T12:29:55.202Z,101682.53
2024-01-19T12:32:47.240Z,101688.72
2024-01-19T12:35:34.799Z,101686.16
2024-01-19T12:38:24.746Z,101690.78
2024-01-19T12:41:20.538Z,101686.72
2024-01-19T12:44:08.166Z,101692.13
2024-01-19T12:46:59.934Z,101695.69
2024-01-19T12:49:53.731Z,101693.06
2024-01-19T12:52:48.660Z,101690.06
2024-01-19T12:55:36.083Z,101690.38
2024-01-19T12:58:23.833Z,101689.72
2024-01-19T13:01:11.886Z,101698.97
2024-01-19T13:03:59.941Z,101691.91
2024-01-19T13:06:47.660Z,101685.38
2024-01-19T13:09:34.976Z,101673.47
2024-01-19T13:12:22.628Z,101701.44
2024-01-19T13:15:11.827Z,101706.50
2024-01-19T13:18:23.544Z,101708.41
2024-01-19T13:21:16.337Z,101719.88
2024-01-19T13:24:04.014Z,101726.69
2024-01-19T13:27:04.647Z,101733.34
2024-01-19T13:29:51.901Z,101729.25
2024-01-19T13:32:40.004Z,101736.13
2024-01-19T13:35:28.040Z,101744.44
2024-01-19T13:38:15.382Z,101744.84
2024-01-19T13:41:02.938Z,101744.47
2024-01-19T13:43:51.320Z,101746.38
2024-01-19T13:46:39.261Z,101740.97
2024-01-19T13:49:26.621Z,101740.09
2024-01-19T13:52:13.962Z,101743.66
2024-01-19T13:55:01.273Z,101741.19
2024-01-19T13:57:48.606Z,101744.81
2024-01-19T14:00:39.382Z,101748.47
2024-01-19T14:03:26.836Z,101762.78
2024-01-19T14:06:16.496Z,101754.66
2024-01-19T14:09:04.397Z,101759.34
2024-01-19T14:11:52.620Z,101765.53
2024-01-19T14:14:41.575Z,101773.97
2024-01-19T14:17:28.831Z,101775.22
2024-01-19T14:20:17.344Z,101784.69
2024-01-19T14:23:08.334Z,101773.03
2024-01-19T14:25:55.596Z,101782.44
2024-01-19T14:28:43.839Z,101772.53
2024-01-19T14:31:33.478Z,101758.38
2024-01-19T14:34:21.342Z,101761.44
2024-01-19T14:37:19.249Z,101758.28
2024-01-19T14:40:08.544Z,101776.22
2024-01-19T14:43:00.892Z,101768.72
2024-01-19T14:45:48.903Z,101766.63
2024-01-19T14:48:37.868Z,101780.31
2024-01-19T14:51:25.602Z,101780.50
2024-01-19T14:54:16.384Z,101779.31
2024-01-19T14:57:04.628Z,101783.63
2024-01-19T14:59:51.847Z,101794.25
2024-01-19T15:02:39.617Z,101797.69
2024-01-19T15:05:27.021Z,101790.22
2024-01-19T15:08:14.264Z,101801.13
2024-01-19T15:11:02.291Z,101802.84
2024-01-19T15:13:51.062Z,101804.50
2024-01-19T15:16:42.656Z,101808.19
2024-01-19T15:19:30.148Z,101792.25
2024-01-19T15:22:17.822Z,101807.78
2024-01-19T15:25:08.698Z,101784.47
2024-01-19T15:27:57.214Z,101808.13
2024-01-19T15:30:44.955Z,101808.69
2024-01-19T15:33:32.482Z,101811.97
2024-01-19T15:36:20.139Z,101813.44
2024-01-19T15:39:08.085Z,101813.03
2024-01-19T15:41:55.273Z,101815.34
2024-01-19T15:44:43.613Z,101822.88
2024-01-19T15:47:32.613Z,101819.03
2024-01-19T15:50:22.385Z,101832.03
2024-01-19T15:53:09.750Z,101820.03
2024-01-19T15:55:59.340Z,101817.69
2024-01-19T15:58:47.811Z,101822.56
2024-01-19T16:01:41.256Z,101838.06
2024-01-19T16:04:30.196Z,101845.50
2024-01-19T16:07:18.334Z,101842.34
2024-01-19T16:10:07.571Z,101853.97
2024-01-19T16:12:55.711Z,101848.97
2024-01-19T16:15:44.352Z,101854.75
2024-01-19T16:18:35.081Z,101862.94
2024-01-19T16:21:27.935Z,101863.13
2024-01-19T16:24:18.489Z,101873.03
2024-01-19T16:27:06.176Z,101856.47
2024-01-19T16:29:54.561Z,101863.78
2024-01-19T16:32:47.836Z,101856.03
2024-01-19T16:35:42.054Z,101868.44
2024-01-19T16:38:30.753Z,101874.84
2024-01-19T16:41:20.896Z,101873.50
2024-01-19T16:44:10.086Z,101871.72
2024-01-19T16:46:57.982Z,101889.56
2024-01-19T16:49:46.088Z,101886.22
2024-01-19T16:52:33.304Z,101900.53
2024-01-19T16:55:21.817Z,101902.53
2024-01-19T16:58:10.884Z,101910.63
2024-01-19T17:00:58.736Z,101915.28
2024-01-19T17:03:48.586Z,101917.13
2024-01-19T17:06:37.046Z,101886.53
2024-01-19T17:09:27.413Z,101915.44
2024-01-19T17:12:16.298Z,101908.59
2024-01-19T17:15:03.650Z,101924.78
2024-01-19T17:17:51.376Z,101937.22
2024-01-19T17:20:41.817Z,101928.38
2024-01-19T17:23:30.017Z,101932.00
2024-01-19T17:26:17.407Z,101932.06
2024-01-19T17:29:04.964Z,101937.47
2024-01-19T17:31:52.531Z,101941.09
2024-01-19T17:34:41.928Z,101942.84
2024-01-19T17:37:30.226Z,101949.09
2024-01-19T17:40:22.610Z,101951.91
2024-01-19T17:43:11.923Z,101952.06
2024-01-19T17:45:59.465Z,101953.91
2024-01-19T17:48:46.815Z,101937.22
2024-01-19T17:51:34.040Z,101957.75
2024-01-19T17:54:22.838Z,101957.84
2024-01-19T17:57:10.307Z,101956.28
2024-01-19T17:59:57.508Z,101971.25
2024-01-19T18:02:45.613Z,101968.53
2024-01-19T18:05:33.055Z,101981.06
2024-01-19T18:08:20.528Z,101976.63
2024-01-19T18:11:07.923Z,101964.41
2024-01-19T18:13:57.272Z,101977.69
2024-01-19T18:16:45.020Z,101968.97
2024-01-19T18:19:33.545Z,101972.56
2024-01-19T18:22:21.390Z,101979.72
2024-01-19T18:25:17.600Z,101993.06
2024-01-19T18:28:07.230Z,101985.09
2024-01-19T18:30:56.148Z,101988.72
2024-01-19T18:33:45.103Z,101993.19
2024-01-19T18:36:33.495Z,101962.47
2024-01-19T18:39:20.848Z,101985.31
2024-01-19T18:42:09.639Z,101992.47
2024-01-19T18:44:58.075Z,102003.22
2024-01-19T18:47:51.563Z,102006.91
2024-01-19T18:50:38.913Z,102007.13
2024-01-19T18:53:26.646Z,102017.72
2024-01-19T18:56:28.687Z,102017.72
2024-01-19T18:59:17.224Z,102023.16
2024-01-19T19:02:06.570Z,102034.72
2024-01-19T19:04:54.028Z,102038.41
2024-01-19T19:07:41.385Z,102033.06
2024-01-19T19:10:29.212Z,102042.03
2024-01-19T19:13:17.621Z,102040.34
2024-01-19T19:16:18.028Z,102049.25
2024-01-19T19:19:09.951Z,102025.63
2024-01-19T19:21:59.017Z,102036.13
2024-01-19T19:24:46.353Z,102037.09
2024-01-19T19:27:34.934Z,102047.75
2024-01-19T19:30:25.568Z,102038.91
2024-01-19T19:33:12.902Z,102052.19
2024-01-19T19:36:03.854Z,102045.16
2024-01-19T19:38:51.439Z,102024.09
2024-01-19T19:41:39.331Z,102048.06
2024-01-19T19:44:29.132Z,102054.25
2024-01-19T19:47:19.091Z,102050.78
2024-01-19T19:50:08.279Z,102054.41
2024-01-19T19:52:55.614Z,102055.53
2024-01-19T19:55:48.373Z,102051.13
2024-01-19T19:58:41.855Z,102063.63
2024-01-19T20:01:30.053Z,102070.91
2024-01-19T20:04:17.428Z,102087.91
2024-01-19T20:07:11.808Z,102063.06
2024-01-19T20:09:59.424Z,102079.91
2024-01-19T20:12:50.656Z,102088.75
2024-01-19T20:15:38.421Z,102074.59
2024-01-19T20:18:29.367Z,102083.56
2024-01-19T20:21:26.788Z,102087.19
2024-01-19T20:24:16.433Z,102090.72
2024-01-19T20:27:04.949Z,102088.16
2024-01-19T20:29:52.944Z,102088.09
2024-01-19T20:32:47.102Z,102078.44
2024-01-19T20:35:38.550Z,102088.28
2024-01-19T20:38:26.471Z,102098.97
2024-01-19T20:41:15.983Z,102091.13
2024-01-19T20:44:04.658Z,102099.97
2024-01-19T20:46:52.064Z,102093.75
2024-01-19T20:49:40.833Z,102093.00
2024-01-19T20:52:28.244Z,102102.75
2024-01-19T20:55:25.055Z,102100.09
2024-01-19T20:58:12.807Z,102089.47
2024-01-19T21:01:05.259Z,102105.47
2024-01-19T21:03:53.999Z,102094.81
2024-01-19T21:06:41.608Z,102084.34
2024-01-19T21:09:31.393Z,102102.91
2024-01-19T21:12:21.165Z,102098.56
2024-01-19T21:15:18.138Z,102098.72
2024-01-19T21:18:08.973Z,102090.72
2024-01-19T21:21:00.264Z,102094.16
2024-01-19T21:23:48.896Z,102096.88
2024-01-19T21:26:40.892Z,102112.91
2024-01-19T21:29:30.036Z,102105.84
2024-01-19T21:32:19.729Z,102101.53
2024-01-19T21:35:17.753Z,102113.06
2024-01-19T21:38:05.008Z,102119.25
2024-01-19T21:40:53.809Z,102113.09
2024-01-19T21:43:42.699Z,102109.59
2024-01-19T21:46:31.027Z,102114.06
2024-01-19T21:49:21.118Z,102110.53
2024-01-19T21:52:09.947Z,102117.59
2024-01-19T21:55:01.442Z,102123.84
2024-01-19T21:57:48.701Z,102132.75
2024-01-19T22:00:37.701Z,102135.47
2024-01-19T22:03:26.921Z,102143.41
2024-01-19T22:06:26.198Z,102146.16
2024-01-19T22:09:15.606Z,102147.13
2024-01-19T22:12:06.618Z,102157.72
2024-01-19T22:14:58.567Z,102148.88
2024-01-19T22:17:46.497Z,102160.44
2024-01-19T22:20:34.839Z,102160.53
2024-01-19T22:23:30.145Z,102164.91
2024-01-19T22:26:17.417Z,102173.81
2024-01-19T22:29:04.795Z,102169.34
2024-01-19T22:31:54.933Z,102171.25
2024-01-19T22:34:45.054Z,102173.03
2024-01-19T22:37:35.964Z,102165.09
2024-01-19T22:40:24.822Z,102179.22
2024-01-19T22:43:18.054Z,102178.38
2024-01-19T22:46:08.485Z,102178.38
2024-01-19T22:48:56.748Z,102193.44
2024-01-19T22:51:46.625Z,102196.94
2024-01-19T22:54:35.067Z,102191.59
2024-01-19T22:57:25.499Z,102200.38
2024-01-19T23:00:16.385Z,102196.84
2024-01-19T23:03:04.196Z,102205.69
2024-01-19T23:05:51.968Z,102211.84
2024-01-19T23:08:39.414Z,102193.28
2024-01-19T23:11:29.152Z,102206.41
2024-01-19T23:14:18.073Z,102205.41
2024-01-19T23:17:06.455Z,102212.47
2024-01-19T23:19:55.019Z,102211.56
2024-01-19T23:22:42.651Z,102217.78
2024-01-19T23:25:37.379Z,102214.22
2024-01-19T23:28:25.379Z,102216.78
2024-01-19T23:31:13.748Z,102204.31
2024-01-19T23:34:01.078Z,102222.84
2024-01-19T23:36:49.574Z,102228.19
2024-01-19T23:39:39.306Z,102221.06
2024-01-19T23:42:26.957Z,102218.34
2024-01-19T23:45:14.540Z,102221.03
2024-01-19T23:48:06.974Z,102221.09
2024-01-19T23:50:54.357Z,102230.84
2024-01-19T23:53:41.816Z,102222.03
2024-01-19T23:56:34.778Z,102217.69
2024-01-19T23:59:21.999Z,102205.25
